Time;durP1;ratioP1;P1;durP2;ratioP2;P2;SDS_P1;SDS_P2;PMS_P1;PMS_P2;Temp;Humidity;BMP_temperature;BMP_pressure;BME280_temperature;BME280_humidity;BME280_pressure;Samples;Min_cycle;Max_cycle;Signal;HPM_P1;HPM_P2
2020/12/22 00:01:09;;;;;;;;;;;9.00;83.70;;;;;;4952146;28;117441;-89
2020/12/22 00:03:34;;;;;;;;;;;8.90;83.80;;;;;;4968917;28;117898;-89
2020/12/22 00:06:00;;;;;;;;;;;9.00;83.90;;;;;;4967404;28;119986;-89
2020/12/22 00:08:25;;;;;;;;;;;9.00;84.80;;;;;;4967763;28;118049;-89
2020/12/22 00:10:51;;;;;;;;;;;9.00;85.00;;;;;;4968423;28;117400;-89
2020/12/22 00:13:16;;;;;;;;;;;9.00;83.60;;;;;;4968597;28;117761;-89
2020/12/22 00:15:42;;;;;;;;;;;9.00;84.30;;;;;;4967304;28;120355;-89
2020/12/22 00:18:07;;;;;;;;;;;9.00;84.30;;;;;;4967577;28;119466;-88
2020/12/22 00:20:33;;;;;;;;;;;9.00;84.90;;;;;;4967903;28;117538;-89
2020/12/22 00:22:58;;;;;;;;;;;9.00;84.30;;;;;;4967917;28;117363;-89
2020/12/22 00:25:24;;;;;;;;;;;9.00;83.60;;;;;;4967503;28;119945;-89
2020/12/22 00:27:49;;;;;;;;;;;9.00;84.80;;;;;;4967234;28;118844;-89
2020/12/22 00:30:15;;;;;;;;;;;9.00;84.60;;;;;;4968283;28;117442;-89
2020/12/22 00:32:40;;;;;;;;;;;9.00;84.60;;;;;;4968250;28;117873;-89
2020/12/22 00:35:06;;;;;;;;;;;9.00;83.30;;;;;;4967085;28;120081;-89
2020/12/22 00:37:31;;;;;;;;;;;9.00;84.10;;;;;;4965922;28;120874;-89
2020/12/22 00:39:57;;;;;;;;;;;9.00;84.80;;;;;;4967197;28;117563;-89
2020/12/22 00:42:22;;;;;;;;;;;9.00;84.20;;;;;;4968156;28;117533;-89
2020/12/22 00:44:48;;;;;;;;;;;9.00;83.70;;;;;;4967162;28;121059;-89
2020/12/22 00:47:13;;;;;;;;;;;9.00;83.20;;;;;;4966269;28;120414;-89
2020/12/22 00:49:39;;;;;;;;;;;9.00;85.10;;;;;;4967887;28;117418;-89
2020/12/22 00:52:04;;;;;;;;;;;9.00;84.50;;;;;;4968235;28;117742;-89
2020/12/22 00:54:30;;;;;;;;;;;9.00;84.70;;;;;;4967074;28;119767;-89
2020/12/22 00:56:56;;;;;;;;;;;9.00;84.10;;;;;;4966965;28;119658;-89
2020/12/22 00:59:22;;;;;;;;;;;9.00;84.80;;;;;;4968054;28;117520;-89
2020/12/22 01:01:47;;;;;;;;;;;9.00;84.40;;;;;;4968196;28;117850;-89
2020/12/22 01:04:13;;;;;;;;;;;9.00;83.60;;;;;;4967129;28;121115;-89
2020/12/22 01:06:38;;;;;;;;;;;9.10;84.60;;;;;;4966561;28;120206;-89
2020/12/22 01:09:04;;;;;;;;;;;9.00;84.80;;;;;;4967733;28;117548;-89
2020/12/22 01:11:36;;;;;;;;;;;9.00;83.70;;;;;;4951278;28;117927;-89
2020/12/22 01:14:02;;;;;;;;;;;9.00;84.60;;;;;;4950267;28;120435;-89
2020/12/22 01:16:28;;;;;;;;;;;9.00;83.90;;;;;;4950099;28;119042;-89
2020/12/22 01:18:53;;;;;;;;;;;9.00;85.10;;;;;;4967304;28;117504;-89
2020/12/22 01:21:19;;;;;;;;;;;9.00;84.40;;;;;;4968214;28;118220;-89
2020/12/22 01:23:45;;;;;;;;;;;9.00;83.40;;;;;;4950255;28;120059;-89
2020/12/22 01:26:10;;;;;;;;;;;9.00;84.90;;;;;;4966246;28;120436;-89
2020/12/22 01:28:36;;;;;;;;;;;9.00;83.40;;;;;;4967604;28;117568;-89
2020/12/22 01:31:01;;;;;;;;;;;9.00;84.60;;;;;;4967870;28;117533;-89
2020/12/22 01:33:27;;;;;;;;;;;9.00;84.40;;;;;;4966465;28;120257;-89
2020/12/22 01:35:52;;;;;;;;;;;9.00;85.00;;;;;;4965673;28;120111;-89
2020/12/22 01:38:18;;;;;;;;;;;9.00;84.20;;;;;;4967144;28;117614;-89
2020/12/22 01:40:49;;;;;;;;;;;9.00;84.40;;;;;;4967693;28;117852;-89
2020/12/22 01:43:15;;;;;;;;;;;9.00;85.00;;;;;;4966189;28;120319;-88
2020/12/22 01:45:40;;;;;;;;;;;9.00;84.10;;;;;;4966195;28;120493;-89
2020/12/22 01:48:06;;;;;;;;;;;9.00;85.00;;;;;;4967241;28;117536;-89
2020/12/22 01:50:31;;;;;;;;;;;9.00;85.00;;;;;;4967976;28;117455;-89
2020/12/22 01:52:58;;;;;;;;;;;9.10;85.10;;;;;;4969538;28;136998;-89
2020/12/22 01:55:24;;;;;;;;;;;9.10;84.60;;;;;;4969871;28;119474;-89
2020/12/22 01:57:49;;;;;;;;;;;9.00;84.50;;;;;;4970487;28;117819;-88
2020/12/22 02:00:15;;;;;;;;;;;9.10;84.00;;;;;;4970193;28;117819;-88
2020/12/22 02:02:40;;;;;;;;;;;9.00;84.60;;;;;;4969574;28;120077;-89
2020/12/22 02:05:06;;;;;;;;;;;9.00;85.10;;;;;;4969434;28;120349;-89
2020/12/22 02:07:31;;;;;;;;;;;9.10;84.80;;;;;;4970128;28;117544;-89
2020/12/22 02:09:57;;;;;;;;;;;9.10;84.40;;;;;;4970746;28;117469;-89
2020/12/22 02:12:22;;;;;;;;;;;9.10;83.70;;;;;;4969471;28;121058;-89
2020/12/22 02:14:48;;;;;;;;;;;9.10;85.10;;;;;;4969695;28;119349;-89
2020/12/22 02:17:13;;;;;;;;;;;9.10;84.10;;;;;;4970280;28;117382;-89
2020/12/22 02:19:39;;;;;;;;;;;9.10;84.20;;;;;;4970374;28;118002;-88
2020/12/22 02:22:04;;;;;;;;;;;9.10;83.80;;;;;;4968978;28;121173;-89
2020/12/22 02:24:34;;;;;;;;;;;9.10;84.70;;;;;;4968652;28;120291;-89
2020/12/22 02:27:00;;;;;;;;;;;9.10;84.70;;;;;;4953659;28;117490;-89
2020/12/22 02:29:25;;;;;;;;;;;9.10;84.50;;;;;;4954105;28;117836;-89
2020/12/22 02:31:51;;;;;;;;;;;9.10;84.60;;;;;;4969164;28;119961;-89
2020/12/22 02:34:16;;;;;;;;;;;9.10;83.70;;;;;;4969093;28;120460;-88
2020/12/22 02:36:42;;;;;;;;;;;9.10;85.10;;;;;;4953140;28;117373;-89
2020/12/22 02:39:07;;;;;;;;;;;9.10;85.00;;;;;;4970294;28;117766;-89
2020/12/22 02:41:33;;;;;;;;;;;9.10;84.60;;;;;;4969154;28;120100;-89
2020/12/22 02:43:58;;;;;;;;;;;9.10;84.20;;;;;;4968780;28;120000;-89
2020/12/22 02:46:24;;;;;;;;;;;9.10;84.40;;;;;;4969633;28;117415;-88
2020/12/22 02:48:50;;;;;;;;;;;9.10;84.40;;;;;;4969454;28;117904;-88
2020/12/22 02:51:15;;;;;;;;;;;9.10;85.00;;;;;;4968741;28;121311;-88
2020/12/22 02:53:41;;;;;;;;;;;9.10;84.10;;;;;;4968770;28;119117;-88
2020/12/22 02:56:06;;;;;;;;;;;9.10;85.00;;;;;;4953110;28;117580;-89
2020/12/22 02:58:32;;;;;;;;;;;9.10;84.90;;;;;;4953282;28;117707;-89
2020/12/22 03:00:57;;;;;;;;;;;9.10;84.40;;;;;;4968683;28;119750;-89
2020/12/22 03:03:23;;;;;;;;;;;9.10;85.00;;;;;;4967600;28;120237;-89
2020/12/22 03:05:48;;;;;;;;;;;9.10;85.10;;;;;;4969460;28;117581;-89
2020/12/22 03:08:14;;;;;;;;;;;9.10;85.00;;;;;;4969839;28;117874;-88
2020/12/22 03:10:39;;;;;;;;;;;9.10;85.10;;;;;;4968698;28;118256;-89
2020/12/22 03:13:05;;;;;;;;;;;9.10;84.90;;;;;;4968117;28;117767;-89
2020/12/22 03:15:30;;;;;;;;;;;9.10;85.00;;;;;;4969183;28;117618;-89
2020/12/22 03:17:56;;;;;;;;;;;9.10;85.80;;;;;;4969623;28;117384;-88
2020/12/22 03:20:24;;;;;;;;;;;9.10;85.50;;;;;;4968140;28;120978;-88
2020/12/22 03:22:49;;;;;;;;;;;9.10;85.40;;;;;;4968517;28;120903;-89
2020/12/22 03:25:15;;;;;;;;;;;9.10;84.90;;;;;;4969310;28;117549;-88
2020/12/22 03:27:40;;;;;;;;;;;9.20;85.70;;;;;;4969354;28;117905;-89
2020/12/22 03:30:09;;;;;;;;;;;9.10;86.40;;;;;;4968297;28;120151;-89
2020/12/22 03:32:35;;;;;;;;;;;9.10;86.40;;;;;;4952227;28;119346;-89
2020/12/22 03:35:01;;;;;;;;;;;9.10;87.80;;;;;;4952749;28;117784;-89
2020/12/22 03:37:26;;;;;;;;;;;9.20;87.50;;;;;;4968672;28;117307;-89
2020/12/22 03:39:53;;;;;;;;;;;9.20;88.00;;;;;;4967912;28;121569;-89
2020/12/22 03:42:18;;;;;;;;;;;9.20;87.80;;;;;;4952051;28;119409;-89
2020/12/22 03:44:44;;;;;;;;;;;9.20;88.40;;;;;;4968747;28;117620;-89
2020/12/22 03:47:10;;;;;;;;;;;9.20;88.50;;;;;;4953046;28;117709;-89
2020/12/22 03:49:35;;;;;;;;;;;9.20;89.30;;;;;;4967907;28;121147;-89
2020/12/22 03:52:01;;;;;;;;;;;9.20;88.80;;;;;;4967824;28;120270;-88
2020/12/22 03:54:26;;;;;;;;;;;9.20;88.80;;;;;;4969117;28;117809;-88
2020/12/22 03:56:52;;;;;;;;;;;9.20;88.90;;;;;;4969081;28;117991;-89
2020/12/22 03:59:17;;;;;;;;;;;9.20;88.50;;;;;;4967632;28;121599;-89
2020/12/22 04:01:43;;;;;;;;;;;9.20;88.20;;;;;;4966931;28;119611;-88
2020/12/22 04:04:08;;;;;;;;;;;9.20;88.90;;;;;;4968346;28;117516;-89
2020/12/22 04:06:34;;;;;;;;;;;9.20;89.00;;;;;;4968473;28;118011;-89
2020/12/22 04:08:59;;;;;;;;;;;9.20;89.40;;;;;;4967584;28;120230;-89
2020/12/22 04:11:25;;;;;;;;;;;9.20;89.50;;;;;;4967525;28;119788;-88
2020/12/22 04:13:50;;;;;;;;;;;9.20;89.70;;;;;;4968156;28;117456;-88
2020/12/22 04:16:16;;;;;;;;;;;9.20;89.60;;;;;;4968575;28;117459;-89
2020/12/22 04:18:41;;;;;;;;;;;9.30;89.90;;;;;;4967212;28;120169;-89
2020/12/22 04:21:07;;;;;;;;;;;9.30;89.30;;;;;;4967282;28;121193;-89
2020/12/22 04:23:33;;;;;;;;;;;9.30;89.70;;;;;;4968367;28;117502;-89
2020/12/22 04:25:58;;;;;;;;;;;9.30;89.70;;;;;;4967688;28;117303;-88
2020/12/22 04:28:24;;;;;;;;;;;9.30;89.00;;;;;;4967386;28;120935;-89
2020/12/22 04:30:49;;;;;;;;;;;9.30;89.20;;;;;;4967242;28;120285;-89
2020/12/22 04:33:15;;;;;;;;;;;9.30;89.00;;;;;;4968166;28;117516;-89
2020/12/22 04:35:40;;;;;;;;;;;9.30;89.20;;;;;;4968497;28;117842;-89
2020/12/22 04:38:06;;;;;;;;;;;9.30;88.70;;;;;;4967186;28;121133;-89
2020/12/22 04:40:32;;;;;;;;;;;9.30;88.10;;;;;;4967124;28;120035;-89
2020/12/22 04:42:57;;;;;;;;;;;9.30;88.80;;;;;;4951820;28;117683;-89
2020/12/22 04:45:23;;;;;;;;;;;9.30;88.70;;;;;;4952087;28;117826;-88
2020/12/22 04:47:49;;;;;;;;;;;9.30;89.30;;;;;;4967017;28;119980;-89
2020/12/22 04:50:14;;;;;;;;;;;9.30;89.00;;;;;;4966645;28;119463;-89
2020/12/22 04:52:40;;;;;;;;;;;9.30;89.50;;;;;;4968121;28;117603;-89
2020/12/22 04:55:05;;;;;;;;;;;9.30;89.30;;;;;;4968159;28;117255;-89
2020/12/22 04:57:34;;;;;;;;;;;9.30;89.10;;;;;;4966686;28;120112;-89
2020/12/22 05:00:02;;;;;;;;;;;9.30;90.10;;;;;;4950910;28;119181;-89
2020/12/22 05:02:28;;;;;;;;;;;9.30;89.30;;;;;;4968187;28;117474;-89
2020/12/22 05:04:53;;;;;;;;;;;9.30;89.10;;;;;;4951890;28;117739;-89
2020/12/22 05:07:19;;;;;;;;;;;9.40;89.40;;;;;;4966692;28;120220;-89
2020/12/22 05:09:46;;;;;;;;;;;9.30;89.30;;;;;;4966951;28;120485;-88
2020/12/22 05:12:11;;;;;;;;;;;9.30;90.00;;;;;;4951300;28;117329;-89
2020/12/22 05:14:37;;;;;;;;;;;9.30;89.30;;;;;;4967325;28;117861;-89
2020/12/22 05:17:02;;;;;;;;;;;9.40;90.00;;;;;;4966272;28;121308;-88
2020/12/22 05:19:34;;;;;;;;;;;9.30;89.30;;;;;;4966318;28;120644;-89
2020/12/22 05:22:00;;;;;;;;;;;9.30;89.30;;;;;;4952407;28;117425;-89
2020/12/22 05:24:25;;;;;;;;;;;9.40;89.80;;;;;;4967746;28;117330;-88
2020/12/22 05:26:51;;;;;;;;;;;9.40;90.00;;;;;;4965900;28;121522;-88
2020/12/22 05:29:18;;;;;;;;;;;9.40;89.40;;;;;;4966464;28;119500;-89
2020/12/22 05:31:47;;;;;;;;;;;9.40;89.70;;;;;;4951587;28;117225;-89
2020/12/22 05:34:13;;;;;;;;;;;9.40;90.00;;;;;;4951393;28;117733;-89
2020/12/22 05:36:39;;;;;;;;;;;9.40;90.10;;;;;;4966243;28;121346;-89
2020/12/22 05:39:05;;;;;;;;;;;9.40;89.30;;;;;;4949560;28;120341;-88
2020/12/22 05:41:32;;;;;;;;;;;9.40;88.60;;;;;;4951180;28;117408;-89
2020/12/22 05:43:58;;;;;;;;;;;9.40;89.10;;;;;;4951516;28;116916;-88
2020/12/22 05:46:26;;;;;;;;;;;9.40;89.80;;;;;;4966152;28;119883;-89
2020/12/22 05:48:52;;;;;;;;;;;9.40;89.20;;;;;;4950107;28;120515;-89
2020/12/22 05:51:17;;;;;;;;;;;9.40;90.00;;;;;;4967238;28;117460;-89
2020/12/22 05:53:43;;;;;;;;;;;9.40;89.20;;;;;;4967720;28;117866;-88
2020/12/22 05:56:17;;;;;;;;;;;9.40;89.40;;;;;;4966190;28;120179;-89
2020/12/22 05:58:43;;;;;;;;;;;9.40;89.80;;;;;;4949724;28;119446;-89
2020/12/22 06:01:09;;;;;;;;;;;9.40;89.40;;;;;;4967466;28;117564;-88
2020/12/22 06:03:35;;;;;;;;;;;9.40;89.20;;;;;;4951216;28;117445;-89
2020/12/22 06:06:00;;;;;;;;;;;9.40;89.40;;;;;;4966043;28;120108;-89
2020/12/22 06:08:26;;;;;;;;;;;9.40;89.20;;;;;;4966095;28;121183;-89
2020/12/22 06:10:51;;;;;;;;;;;9.40;89.90;;;;;;4967061;28;117556;-89
2020/12/22 06:13:17;;;;;;;;;;;9.40;89.60;;;;;;4967199;28;117319;-88
2020/12/22 06:15:42;;;;;;;;;;;9.40;89.00;;;;;;4965783;28;120415;-89
2020/12/22 06:18:08;;;;;;;;;;;9.40;89.60;;;;;;4966026;28;119334;-88
2020/12/22 06:20:33;;;;;;;;;;;9.40;89.70;;;;;;4966897;28;117674;-88
2020/12/22 06:23:03;;;;;;;;;;;9.50;89.10;;;;;;4967473;28;117811;-88
2020/12/22 06:25:28;;;;;;;;;;;9.40;89.70;;;;;;4949577;28;119944;-89
2020/12/22 06:27:54;;;;;;;;;;;9.50;89.30;;;;;;4965173;28;119831;-88
2020/12/22 06:30:21;;;;;;;;;;;9.50;90.30;;;;;;4966630;28;117506;-88
2020/12/22 06:32:46;;;;;;;;;;;9.50;90.00;;;;;;4950510;28;117746;-88
2020/12/22 06:35:29;;;;;;;;;;;9.50;89.80;;;;;;4965693;28;121117;-88
2020/12/22 06:37:55;;;;;;;;;;;9.50;89.80;;;;;;4950307;28;120551;-88
2020/12/22 06:40:21;;;;;;;;;;;9.50;89.00;;;;;;4953631;28;117664;-88
2020/12/22 06:42:47;;;;;;;;;;;9.50;89.80;;;;;;4953740;28;117869;-88
2020/12/22 06:45:21;;;;;;;;;;;9.50;89.60;;;;;;4969049;28;120144;-89
2020/12/22 06:47:47;;;;;;;;;;;9.50;90.10;;;;;;4968648;28;119333;-89
2020/12/22 06:50:12;;;;;;;;;;;9.50;90.20;;;;;;4969632;28;117606;-88
2020/12/22 06:52:42;;;;;;;;;;;9.50;90.00;;;;;;4969580;28;117340;-88
2020/12/22 06:55:08;;;;;;;;;;;9.50;90.00;;;;;;4952531;28;119958;-88
2020/12/22 06:57:40;;;;;;;;;;;9.50;90.50;;;;;;4952010;28;120266;-88
2020/12/22 07:00:05;;;;;;;;;;;9.50;90.00;;;;;;4969619;28;117690;-89
2020/12/22 07:02:31;;;;;;;;;;;9.50;90.10;;;;;;4969585;28;117929;-89
2020/12/22 07:04:57;;;;;;;;;;;9.50;90.20;;;;;;4952339;28;120149;-88
2020/12/22 07:07:23;;;;;;;;;;;9.50;90.00;;;;;;4952011;28;118799;-89
2020/12/22 07:09:49;;;;;;;;;;;9.50;90.20;;;;;;4969650;28;117602;-88
2020/12/22 07:12:16;;;;;;;;;;;9.50;90.00;;;;;;4969941;28;117797;-88
2020/12/22 07:14:44;;;;;;;;;;;9.50;90.20;;;;;;4968758;28;121200;-89
2020/12/22 07:17:10;;;;;;;;;;;9.50;90.10;;;;;;4951403;28;120414;-89
2020/12/22 07:19:36;;;;;;;;;;;9.50;90.20;;;;;;4952651;28;117645;-89
2020/12/22 07:22:02;;;;;;;;;;;9.60;90.30;;;;;;4969534;28;117940;-89
2020/12/22 07:24:28;;;;;;;;;;;9.50;90.40;;;;;;4952087;28;121294;-89
2020/12/22 07:26:54;;;;;;;;;;;9.50;90.30;;;;;;4951937;28;120323;-88
2020/12/22 07:29:20;;;;;;;;;;;9.50;90.30;;;;;;4969248;28;117488;-89
2020/12/22 07:31:46;;;;;;;;;;;9.50;90.30;;;;;;4969627;28;117479;-89
2020/12/22 07:34:11;;;;;;;;;;;9.50;90.30;;;;;;4952270;28;120114;-89
2020/12/22 07:36:37;;;;;;;;;;;9.50;90.00;;;;;;4967790;28;120180;-89
2020/12/22 07:39:32;;;;;;;;;;;9.50;90.20;;;;;;4968973;28;117657;-89
2020/12/22 07:42:07;;;;;;;;;;;9.50;90.40;;;;;;4955692;28;117741;-88
2020/12/22 07:44:32;;;;;;;;;;;9.60;90.60;;;;;;4951653;28;121466;-89
2020/12/22 07:46:58;;;;;;;;;;;9.60;90.40;;;;;;4967932;28;119437;-88
2020/12/22 07:49:23;;;;;;;;;;;9.60;90.40;;;;;;4968316;28;117505;-89
2020/12/22 07:51:49;;;;;;;;;;;9.60;90.60;;;;;;4969025;28;117311;-88
2020/12/22 07:54:15;;;;;;;;;;;9.60;90.20;;;;;;4967701;28;122256;-89
2020/12/22 07:56:44;;;;;;;;;;;9.60;90.60;;;;;;4967721;28;119529;-89
2020/12/22 07:59:10;;;;;;;;;;;9.60;90.30;;;;;;4952254;28;117539;-88
2020/12/22 08:01:39;;;;;;;;;;;9.60;90.10;;;;;;4952826;28;117860;-88
2020/12/22 08:04:18;;;;;;;;;;;9.60;90.10;;;;;;4951489;28;119790;-88
2020/12/22 08:06:53;;;;;;;;;;;9.60;90.10;;;;;;4950862;28;120331;-88
2020/12/22 08:09:45;;;;;;;;;;;9.50;90.30;;;;;;4952150;28;117444;-88
2020/12/22 08:12:11;;;;;;;;;;;9.60;90.50;;;;;;4965784;28;117543;-88
2020/12/22 08:14:40;;;;;;;;;;;9.60;90.50;;;;;;4967687;28;120040;-88
2020/12/22 08:17:10;;;;;;;;;;;9.60;90.50;;;;;;4951046;28;118937;-89
2020/12/22 08:19:36;;;;;;;;;;;9.60;90.50;;;;;;4951300;28;117784;-88
2020/12/22 08:22:01;;;;;;;;;;;9.60;90.40;;;;;;4968717;28;117865;-88
2020/12/22 08:24:28;;;;;;;;;;;9.60;90.40;;;;;;4967700;28;121053;-89
2020/12/22 08:26:53;;;;;;;;;;;9.60;90.50;;;;;;4950693;28;119397;-88
2020/12/22 08:29:19;;;;;;;;;;;9.60;90.60;;;;;;4968238;28;117473;-88
2020/12/22 08:31:45;;;;;;;;;;;9.60;90.50;;;;;;4968983;28;118233;-88
2020/12/22 08:34:11;;;;;;;;;;;9.60;90.60;;;;;;4951583;28;121271;-88
2020/12/22 08:36:36;;;;;;;;;;;9.70;90.20;;;;;;4950660;28;119570;-88
2020/12/22 08:39:19;;;;;;;;;;;9.70;90.40;;;;;;4968064;28;117347;-88
2020/12/22 08:41:45;;;;;;;;;;;9.70;90.40;;;;;;4952305;28;117867;-88
2020/12/22 08:44:11;;;;;;;;;;;9.70;90.30;;;;;;4950816;28;120193;-88
2020/12/22 08:46:37;;;;;;;;;;;9.70;90.50;;;;;;4967072;28;119696;-88
2020/12/22 08:49:07;;;;;;;;;;;9.70;90.30;;;;;;4951938;28;117533;-88
2020/12/22 08:51:32;;;;;;;;;;;9.70;90.50;;;;;;4951770;28;117492;-88
2020/12/22 08:54:00;;;;;;;;;;;9.70;89.80;;;;;;4967000;28;120431;-88
2020/12/22 08:56:25;;;;;;;;;;;9.70;90.40;;;;;;4949823;28;120547;-89
2020/12/22 08:58:54;;;;;;;;;;;9.70;90.60;;;;;;4967726;28;117421;-87
2020/12/22 09:01:20;;;;;;;;;;;9.70;90.10;;;;;;4967078;28;117358;-88
2020/12/22 09:03:49;;;;;;;;;;;9.80;90.40;;;;;;4967066;28;118724;-89
2020/12/22 09:06:15;;;;;;;;;;;9.70;90.40;;;;;;4950549;28;120102;-88
2020/12/22 09:08:40;;;;;;;;;;;9.80;90.50;;;;;;4967761;28;117658;-88
2020/12/22 09:11:16;;;;;;;;;;;9.80;90.20;;;;;;4967972;28;117838;-87
2020/12/22 09:13:41;;;;;;;;;;;9.80;90.20;;;;;;4950680;28;121471;-88
2020/12/22 09:16:07;;;;;;;;;;;9.80;90.60;;;;;;4966632;28;119456;-87
2020/12/22 09:18:33;;;;;;;;;;;9.80;90.80;;;;;;4967332;28;117371;-88
2020/12/22 09:21:04;;;;;;;;;;;9.80;90.20;;;;;;4967335;28;118011;-88
2020/12/22 09:23:30;;;;;;;;;;;9.80;90.50;;;;;;4950244;28;121106;-87
2020/12/22 09:25:56;;;;;;;;;;;9.80;90.00;;;;;;4966234;28;120521;-88
2020/12/22 09:28:21;;;;;;;;;;;9.80;90.50;;;;;;4967616;28;117434;-88
2020/12/22 09:30:47;;;;;;;;;;;9.80;90.70;;;;;;4967823;28;117870;-88
2020/12/22 09:33:12;;;;;;;;;;;9.80;90.10;;;;;;4966732;28;120104;-89
2020/12/22 09:35:38;;;;;;;;;;;9.80;90.00;;;;;;4966516;28;119362;-88
2020/12/22 09:38:03;;;;;;;;;;;9.80;90.20;;;;;;4967281;28;117466;-88
2020/12/22 09:40:28;;;;;;;;;;;9.80;90.40;;;;;;4967711;28;117787;-88
2020/12/22 09:42:54;;;;;;;;;;;9.80;90.60;;;;;;4966319;28;121226;-88
2020/12/22 09:45:19;;;;;;;;;;;9.80;90.40;;;;;;4965861;28;119575;-88
2020/12/22 09:47:45;;;;;;;;;;;9.80;90.00;;;;;;4967109;28;117301;-88
2020/12/22 09:50:10;;;;;;;;;;;9.80;90.40;;;;;;4967724;28;117910;-88
2020/12/22 09:52:36;;;;;;;;;;;9.80;89.80;;;;;;4966422;28;120022;-88
2020/12/22 09:55:01;;;;;;;;;;;9.80;90.20;;;;;;4966216;28;119610;-87
2020/12/22 09:57:27;;;;;;;;;;;9.80;89.40;;;;;;4967091;28;117650;-89
2020/12/22 09:59:52;;;;;;;;;;;9.90;90.60;;;;;;4967551;28;117555;-89
2020/12/22 10:02:18;;;;;;;;;;;9.90;90.10;;;;;;4966494;28;120902;-89
2020/12/22 10:04:43;;;;;;;;;;;9.90;90.20;;;;;;4966104;28;120135;-89
2020/12/22 10:07:09;;;;;;;;;;;9.90;90.10;;;;;;4966758;28;117451;-87
2020/12/22 10:09:34;;;;;;;;;;;9.90;90.40;;;;;;4966768;28;117610;-88
2020/12/22 10:12:00;;;;;;;;;;;9.90;90.40;;;;;;4950784;28;119670;-89
2020/12/22 10:14:25;;;;;;;;;;;9.90;90.90;;;;;;4969485;28;120370;-89
2020/12/22 10:16:51;;;;;;;;;;;9.90;90.20;;;;;;4969773;28;117454;-89
2020/12/22 10:19:16;;;;;;;;;;;9.90;90.20;;;;;;4969946;28;117870;-89
2020/12/22 10:21:42;;;;;;;;;;;9.90;89.30;;;;;;4969302;28;120320;-88
2020/12/22 10:24:07;;;;;;;;;;;9.90;89.50;;;;;;4969300;28;119115;-89
2020/12/22 10:26:33;;;;;;;;;;;9.90;90.50;;;;;;4969985;28;117476;-88
2020/12/22 10:28:59;;;;;;;;;;;9.90;90.30;;;;;;4970174;28;117755;-89
2020/12/22 10:31:25;;;;;;;;;;;9.90;90.20;;;;;;4969156;28;120821;-88
2020/12/22 10:33:50;;;;;;;;;;;9.90;90.10;;;;;;4952267;28;119135;-88
2020/12/22 10:36:16;;;;;;;;;;;9.90;90.10;;;;;;4969817;28;118030;-89
2020/12/22 10:38:42;;;;;;;;;;;9.90;90.00;;;;;;4954026;28;117733;-88
2020/12/22 10:41:07;;;;;;;;;;;9.90;89.30;;;;;;4969053;28;121105;-88
2020/12/22 10:43:33;;;;;;;;;;;9.90;90.00;;;;;;4969308;28;117932;-89
2020/12/22 10:45:59;;;;;;;;;;;9.90;90.30;;;;;;4953340;28;117616;-89
2020/12/22 10:48:24;;;;;;;;;;;9.90;89.70;;;;;;4970199;28;118195;-88
2020/12/22 10:50:50;;;;;;;;;;;10.00;89.90;;;;;;4952998;28;120319;-88
2020/12/22 10:53:16;;;;;;;;;;;10.00;89.20;;;;;;4969193;28;120208;-88
2020/12/22 10:55:44;;;;;;;;;;;10.00;90.20;;;;;;4969988;28;117369;-88
2020/12/22 10:58:12;;;;;;;;;;;10.00;90.80;;;;;;4969164;28;117815;-88
2020/12/22 11:00:38;;;;;;;;;;;10.00;89.90;;;;;;4969328;28;120274;-88
2020/12/22 11:03:09;;;;;;;;;;;10.00;89.70;;;;;;4969924;28;120482;-88
2020/12/22 11:08:19;;;;;;;;;;;10.00;90.70;;;;;;4970133;28;117334;-88
2020/12/22 11:10:45;;;;;;;;;;;10.00;90.00;;;;;;4968944;28;120399;-89
2020/12/22 11:13:10;;;;;;;;;;;10.10;89.60;;;;;;4968566;28;119858;-90
2020/12/22 11:15:36;;;;;;;;;;;10.00;89.70;;;;;;4953614;28;116722;-89
2020/12/22 11:18:02;;;;;;;;;;;10.00;90.00;;;;;;4969505;28;117908;-89
2020/12/22 11:20:27;;;;;;;;;;;10.10;90.40;;;;;;4968381;28;120185;-89
2020/12/22 11:22:53;;;;;;;;;;;10.00;89.90;;;;;;4967408;28;119388;-89
2020/12/22 11:25:21;;;;;;;;;;;10.00;90.10;;;;;;4968102;28;117806;-90
2020/12/22 11:27:47;;;;;;;;;;;10.10;90.20;;;;;;4953106;28;118197;-89
2020/12/22 11:30:15;;;;;;;;;;;10.10;89.30;;;;;;4968534;28;119603;-89
2020/12/22 11:32:41;;;;;;;;;;;10.00;89.40;;;;;;4952070;28;120073;-89
2020/12/22 11:35:07;;;;;;;;;;;10.00;89.40;;;;;;4969067;28;117536;-88
2020/12/22 11:37:32;;;;;;;;;;;10.10;88.60;;;;;;4953010;28;117889;-86
2020/12/22 11:39:58;;;;;;;;;;;10.10;90.20;;;;;;4968082;28;122965;-88
2020/12/22 11:42:23;;;;;;;;;;;10.10;89.30;;;;;;4968244;28;118847;-88
2020/12/22 11:44:49;;;;;;;;;;;10.10;88.80;;;;;;4968858;28;117558;-88
2020/12/22 11:47:14;;;;;;;;;;;10.10;89.90;;;;;;4968424;28;117885;-88
2020/12/22 11:49:40;;;;;;;;;;;10.10;90.00;;;;;;4968045;28;119665;-88
2020/12/22 11:52:06;;;;;;;;;;;10.10;90.00;;;;;;4967934;28;119163;-88
2020/12/22 11:54:31;;;;;;;;;;;10.10;90.50;;;;;;4968729;28;117552;-88
2020/12/22 11:56:58;;;;;;;;;;;10.10;90.00;;;;;;4968860;28;118084;-88
2020/12/22 11:59:24;;;;;;;;;;;10.10;88.90;;;;;;4967754;28;121407;-88
2020/12/22 12:01:49;;;;;;;;;;;10.10;88.90;;;;;;4967952;28;119956;-88
2020/12/22 12:04:15;;;;;;;;;;;10.10;90.00;;;;;;4968710;28;117389;-88
2020/12/22 12:06:47;;;;;;;;;;;10.20;90.00;;;;;;4968529;28;117959;-89
2020/12/22 12:09:12;;;;;;;;;;;10.20;90.90;;;;;;4951415;28;121046;-88
2020/12/22 12:11:38;;;;;;;;;;;10.20;90.60;;;;;;4950783;28;119999;-88
2020/12/22 12:14:03;;;;;;;;;;;10.20;90.30;;;;;;4968339;28;117407;-88
2020/12/22 12:16:29;;;;;;;;;;;10.20;90.20;;;;;;4969956;28;117749;-88
2020/12/22 12:18:54;;;;;;;;;;;10.20;90.70;;;;;;4967157;28;120009;-88
2020/12/22 12:21:20;;;;;;;;;;;10.20;89.90;;;;;;4967613;28;119376;-88
2020/12/22 12:23:45;;;;;;;;;;;10.20;89.60;;;;;;4968320;28;117476;-88
2020/12/22 12:26:11;;;;;;;;;;;10.20;90.50;;;;;;4968340;28;117929;-88
2020/12/22 12:28:37;;;;;;;;;;;10.20;89.90;;;;;;4967512;28;121242;-87
2020/12/22 12:31:03;;;;;;;;;;;10.20;89.60;;;;;;4951279;28;119348;-88
2020/12/22 12:33:28;;;;;;;;;;;10.20;89.00;;;;;;4967964;28;117573;-88
2020/12/22 12:35:54;;;;;;;;;;;10.20;90.40;;;;;;4967729;28;117512;-88
2020/12/22 12:38:19;;;;;;;;;;;10.30;90.90;;;;;;4966997;28;121115;-88
2020/12/22 12:40:45;;;;;;;;;;;10.30;90.30;;;;;;4967036;28;120491;-88
2020/12/22 12:43:10;;;;;;;;;;;10.30;91.10;;;;;;4968194;28;117463;-88
2020/12/22 12:45:36;;;;;;;;;;;10.30;90.20;;;;;;4968460;28;117848;-88
2020/12/22 12:48:01;;;;;;;;;;;10.20;90.40;;;;;;4966884;28;121276;-88
2020/12/22 12:50:27;;;;;;;;;;;10.30;90.90;;;;;;4967508;28;117423;-88
2020/12/22 12:52:52;;;;;;;;;;;10.30;90.40;;;;;;4968076;28;117472;-88
2020/12/22 12:55:18;;;;;;;;;;;10.30;90.90;;;;;;4951906;28;117722;-88
2020/12/22 12:57:43;;;;;;;;;;;10.30;90.20;;;;;;4966713;28;120742;-88
2020/12/22 13:00:09;;;;;;;;;;;10.30;90.40;;;;;;4966173;28;120097;-88
2020/12/22 13:02:35;;;;;;;;;;;10.30;90.10;;;;;;4967688;28;117528;-88
2020/12/22 13:05:04;;;;;;;;;;;10.30;89.80;;;;;;4968186;28;117897;-88
2020/12/22 13:07:33;;;;;;;;;;;10.30;89.60;;;;;;4967141;28;121600;-88
2020/12/22 13:09:59;;;;;;;;;;;10.30;89.60;;;;;;4967057;28;117361;-88
2020/12/22 13:12:25;;;;;;;;;;;10.30;90.10;;;;;;4951237;28;117526;-88
2020/12/22 13:14:50;;;;;;;;;;;10.30;89.80;;;;;;4968023;28;117854;-89
2020/12/22 13:17:16;;;;;;;;;;;10.30;89.60;;;;;;4966530;28;120050;-88
2020/12/22 13:19:41;;;;;;;;;;;10.30;89.70;;;;;;4966174;28;119447;-88
2020/12/22 13:22:07;;;;;;;;;;;10.30;89.10;;;;;;4967529;28;117924;-88
2020/12/22 13:24:32;;;;;;;;;;;10.30;89.10;;;;;;4951130;28;117904;-88
2020/12/22 13:26:58;;;;;;;;;;;10.30;90.20;;;;;;4966542;28;121260;-88
2020/12/22 13:29:24;;;;;;;;;;;10.30;89.10;;;;;;4966692;28;120441;-89
2020/12/22 13:31:49;;;;;;;;;;;10.30;89.60;;;;;;4967455;28;117595;-89
2020/12/22 13:34:15;;;;;;;;;;;10.30;88.80;;;;;;4967741;28;117584;-89
2020/12/22 13:36:40;;;;;;;;;;;10.30;89.20;;;;;;4966169;28;120086;-89
2020/12/22 13:39:06;;;;;;;;;;;10.30;88.80;;;;;;4966642;28;120488;-89
2020/12/22 13:41:31;;;;;;;;;;;10.30;89.50;;;;;;4967461;28;117317;-89
2020/12/22 13:43:57;;;;;;;;;;;10.30;89.10;;;;;;4951284;28;117848;-89
2020/12/22 13:46:26;;;;;;;;;;;10.30;90.30;;;;;;4966409;28;121308;-89
2020/12/22 13:48:52;;;;;;;;;;;10.40;90.20;;;;;;4953089;28;119313;-89
2020/12/22 13:51:17;;;;;;;;;;;10.40;90.00;;;;;;4954257;28;117532;-89
2020/12/22 13:53:43;;;;;;;;;;;10.40;89.30;;;;;;4971095;28;117490;-89
2020/12/22 13:56:14;;;;;;;;;;;10.40;89.70;;;;;;4969708;28;121107;-89
2020/12/22 13:58:39;;;;;;;;;;;10.40;90.00;;;;;;4953155;28;120935;-89
2020/12/22 14:01:05;;;;;;;;;;;10.40;89.90;;;;;;4970424;28;117472;-89
2020/12/22 14:03:30;;;;;;;;;;;10.40;90.00;;;;;;4970772;28;117255;-89
2020/12/22 14:05:56;;;;;;;;;;;10.40;89.70;;;;;;4969434;28;119926;-89
2020/12/22 14:08:22;;;;;;;;;;;10.40;89.40;;;;;;4969486;28;120132;-89
2020/12/22 14:10:48;;;;;;;;;;;10.40;90.10;;;;;;4970222;28;117483;-89